sensor_id;sensor_type;location;lat;lon;timestamp;temperature;humidity
12602;DHT22;30282;16.436;99.370;2024-01-30T00:00:08;23.00;99.90
12602;DHT22;30282;16.436;99.370;2024-01-30T00:02:37;23.10;99.90
12602;DHT22;30282;16.436;99.370;2024-01-30T00:05:06;23.10;99.90
12602;DHT22;30282;16.436;99.370;2024-01-30T00:07:37;23.10;99.90
12602;DHT22;30282;16.436;99.370;2024-01-30T00:10:06;23.00;99.90
12602;DHT22;30282;16.436;99.370;2024-01-30T00:12:36;23.10;99.90
12602;DHT22;30282;16.436;99.370;2024-01-30T00:15:05;23.10;99.90
12602;DHT22;30282;16.436;99.370;2024-01-30T00:17:36;23.10;99.90
12602;DHT22;30282;16.436;99.370;2024-01-30T00:20:06;23.10;99.90
12602;DHT22;30282;16.436;99.370;2024-01-30T00:22:38;23.20;99.90
12602;DHT22;30282;16.436;99.370;2024-01-30T00:25:08;23.10;99.90
12602;DHT22;30282;16.436;99.370;2024-01-30T00:27:37;23.10;99.90
12602;DHT22;30282;16.436;99.370;2024-01-30T00:30:07;23.10;99.90
12602;DHT22;30282;16.436;99.370;2024-01-30T00:32:36;23.10;99.90
12602;DHT22;30282;16.436;99.370;2024-01-30T00:35:06;23.10;99.90
12602;DHT22;30282;16.436;99.370;2024-01-30T00:37:38;23.20;99.90
12602;DHT22;30282;16.436;99.370;2024-01-30T00:40:08;23.20;99.90
12602;DHT22;30282;16.436;99.370;2024-01-30T00:42:42;23.30;99.90
12602;DHT22;30282;16.436;99.370;2024-01-30T00:45:13;23.30;99.90
12602;DHT22;30282;16.436;99.370;2024-01-30T00:47:43;23.20;99.90
12602;DHT22;30282;16.436;99.370;2024-01-30T00:50:12;23.20;99.90
12602;DHT22;30282;16.436;99.370;2024-01-30T00:52:42;23.20;99.90
12602;DHT22;30282;16.436;99.370;2024-01-30T00:55:12;23.20;99.90
12602;DHT22;30282;16.436;99.370;2024-01-30T00:57:41;23.10;99.90
12602;DHT22;30282;16.436;99.370;2024-01-30T01:00:11;23.10;99.90
12602;DHT22;30282;16.436;99.370;2024-01-30T01:02:42;23.20;99.90
12602;DHT22;30282;16.436;99.370;2024-01-30T01:05:12;23.20;99.90
12602;DHT22;30282;16.436;99.370;2024-01-30T01:07:42;23.30;99.90
12602;DHT22;30282;16.436;99.370;2024-01-30T01:10:14;23.30;99.90
12602;DHT22;30282;16.436;99.370;2024-01-30T01:12:44;23.30;99.90
12602;DHT22;30282;16.436;99.370;2024-01-30T01:15:13;23.30;99.90
12602;DHT22;30282;16.436;99.370;2024-01-30T01:17:42;23.30;99.90
12602;DHT22;30282;16.436;99.370;2024-01-30T01:20:12;23.30;99.90
12602;DHT22;30282;16.436;99.370;2024-01-30T01:22:43;23.30;99.90
12602;DHT22;30282;16.436;99.370;2024-01-30T01:25:12;23.30;99.90
12602;DHT22;30282;16.436;99.370;2024-01-30T01:27:41;23.30;99.90
12602;DHT22;30282;16.436;99.370;2024-01-30T01:30:18;23.30;99.90
12602;DHT22;30282;16.436;99.370;2024-01-30T01:32:49;23.30;99.90
12602;DHT22;30282;16.436;99.370;2024-01-30T01:35:22;23.30;99.90
12602;DHT22;30282;16.436;99.370;2024-01-30T01:37:53;23.20;99.90
12602;DHT22;30282;16.436;99.370;2024-01-30T01:40:24;23.30;99.90
12602;DHT22;30282;16.436;99.370;2024-01-30T01:42:54;23.30;99.90
12602;DHT22;30282;16.436;99.370;2024-01-30T01:45:23;23.30;99.90
12602;DHT22;30282;16.436;99.370;2024-01-30T01:47:52;23.30;99.90
12602;DHT22;30282;16.436;99.370;2024-01-30T01:50:22;23.20;99.90
12602;DHT22;30282;16.436;99.370;2024-01-30T01:52:54;23.30;99.90
12602;DHT22;30282;16.436;99.370;2024-01-30T01:55:24;23.30;99.90
12602;DHT22;30282;16.436;99.370;2024-01-30T01:57:54;23.20;99.90
12602;DHT22;30282;16.436;99.370;2024-01-30T02:00:24;23.30;99.90
12602;DHT22;30282;16.436;99.370;2024-01-30T02:02:54;23.40;99.90
12602;DHT22;30282;16.436;99.370;2024-01-30T02:05:23;23.40;99.90
12602;DHT22;30282;16.436;99.370;2024-01-30T02:07:54;23.50;99.90
12602;DHT22;30282;16.436;99.370;2024-01-30T02:10:25;23.40;99.90
12602;DHT22;30282;16.436;99.370;2024-01-30T02:12:54;23.50;99.90
12602;DHT22;30282;16.436;99.370;2024-01-30T02:15:25;23.50;99.90
12602;DHT22;30282;16.436;99.370;2024-01-30T02:17:54;23.60;99.90
12602;DHT22;30282;16.436;99.370;2024-01-30T02:20:25;23.60;99.90
12602;DHT22;30282;16.436;99.370;2024-01-30T02:22:59;23.60;99.90
12602;DHT22;30282;16.436;99.370;2024-01-30T02:25:35;23.60;99.90
12602;DHT22;30282;16.436;99.370;2024-01-30T02:28:05;23.60;99.90
12602;DHT22;30282;16.436;99.370;2024-01-30T02:30:34;23.60;99.90
12602;DHT22;30282;16.436;99.370;2024-01-30T02:33:03;23.60;99.90
12602;DHT22;30282;16.436;99.370;2024-01-30T02:35:32;23.60;99.90
12602;DHT22;30282;16.436;99.370;2024-01-30T02:38:03;23.70;99.90
12602;DHT22;30282;16.436;99.370;2024-01-30T02:40:32;23.70;99.90
12602;DHT22;30282;16.436;99.370;2024-01-30T02:43:02;23.80;99.90
12602;DHT22;30282;16.436;99.370;2024-01-30T02:45:32;23.80;99.90
12602;DHT22;30282;16.436;99.370;2024-01-30T02:48:01;23.80;99.90
12602;DHT22;30282;16.436;99.370;2024-01-30T02:50:30;23.80;99.90
12602;DHT22;30282;16.436;99.370;2024-01-30T02:52:59;23.90;99.90
12602;DHT22;30282;16.436;99.370;2024-01-30T02:55:30;23.90;99.90
12602;DHT22;30282;16.436;99.370;2024-01-30T02:58:00;23.90;99.90
12602;DHT22;30282;16.436;99.370;2024-01-30T03:00:29;23.90;99.90
12602;DHT22;30282;16.436;99.370;2024-01-30T03:02:58;23.90;99.90
12602;DHT22;30282;16.436;99.370;2024-01-30T03:05:27;23.90;99.90
12602;DHT22;30282;16.436;99.370;2024-01-30T03:07:56;24.00;99.90
12602;DHT22;30282;16.436;99.370;2024-01-30T03:10:26;24.00;99.90
12602;DHT22;30282;16.436;99.370;2024-01-30T03:12:57;24.00;99.90
12602;DHT22;30282;16.436;99.370;2024-01-30T03:15:29;23.90;99.90
12602;DHT22;30282;16.436;99.370;2024-01-30T03:17:58;23.90;99.90
12602;DHT22;30282;16.436;99.370;2024-01-30T03:20:27;23.90;99.90
12602;DHT22;30282;16.436;99.370;2024-01-30T03:22:56;23.80;99.90
12602;DHT22;30282;16.436;99.370;2024-01-30T03:25:25;23.80;99.90
12602;DHT22;30282;16.436;99.370;2024-01-30T03:27:56;23.80;99.90
12602;DHT22;30282;16.436;99.370;2024-01-30T03:30:25;23.90;99.90
12602;DHT22;30282;16.436;99.370;2024-01-30T03:32:54;23.90;99.90
12602;DHT22;30282;16.436;99.370;2024-01-30T03:35:23;23.90;99.90
12602;DHT22;30282;16.436;99.370;2024-01-30T03:37:52;23.90;99.90
12602;DHT22;30282;16.436;99.370;2024-01-30T03:40:21;23.90;99.90
12602;DHT22;30282;16.436;99.370;2024-01-30T03:42:50;23.90;99.90
12602;DHT22;30282;16.436;99.370;2024-01-30T03:45:21;23.90;99.90
12602;DHT22;30282;16.436;99.370;2024-01-30T03:47:50;23.90;99.90
12602;DHT22;30282;16.436;99.370;2024-01-30T03:50:19;23.90;99.90
12602;DHT22;30282;16.436;99.370;2024-01-30T03:52:48;23.90;99.90
12602;DHT22;30282;16.436;99.370;2024-01-30T03:55:17;23.90;99.90
12602;DHT22;30282;16.436;99.370;2024-01-30T03:57:46;24.00;99.90
12602;DHT22;30282;16.436;99.370;2024-01-30T04:00:15;23.90;99.90
12602;DHT22;30282;16.436;99.370;2024-01-30T04:02:46;24.00;99.90
12602;DHT22;30282;16.436;99.370;2024-01-30T04:05:15;23.90;99.90
12602;DHT22;30282;16.436;99.370;2024-01-30T04:07:44;24.00;99.90
12602;DHT22;30282;16.436;99.370;2024-01-30T04:10:13;24.00;99.90
12602;DHT22;30282;16.436;99.370;2024-01-30T04:12:42;24.10;99.90
12602;DHT22;30282;16.436;99.370;2024-01-30T04:15:11;24.10;99.90
12602;DHT22;30282;16.436;99.370;2024-01-30T04:17:41;24.10;99.90
12602;DHT22;30282;16.436;99.370;2024-01-30T04:20:15;24.20;99.90
12602;DHT22;30282;16.436;99.370;2024-01-30T04:22:44;24.20;99.90
12602;DHT22;30282;16.436;99.370;2024-01-30T04:25:13;24.20;99.90
12602;DHT22;30282;16.436;99.370;2024-01-30T04:27:42;24.20;99.90
12602;DHT22;30282;16.436;99.370;2024-01-30T04:30:12;24.30;99.90
12602;DHT22;30282;16.436;99.370;2024-01-30T04:32:41;24.30;99.90
12602;DHT22;30282;16.436;99.370;2024-01-30T04:35:10;24.30;99.90
12602;DHT22;30282;16.436;99.370;2024-01-30T04:37:40;24.20;99.90
12602;DHT22;30282;16.436;99.370;2024-01-30T04:40:10;24.30;99.90
12602;DHT22;30282;16.436;99.370;2024-01-30T04:42:39;24.30;99.90
12602;DHT22;30282;16.436;99.370;2024-01-30T04:45:09;24.40;99.90
12602;DHT22;30282;16.436;99.370;2024-01-30T04:47:38;24.40;99.90
12602;DHT22;30282;16.436;99.370;2024-01-30T04:50:08;24.40;99.90
12602;DHT22;30282;16.436;99.370;2024-01-30T04:52:37;24.30;99.90
12602;DHT22;30282;16.436;99.370;2024-01-30T04:55:08;24.40;99.90
12602;DHT22;30282;16.436;99.370;2024-01-30T04:57:37;24.40;99.90
12602;DHT22;30282;16.436;99.370;2024-01-30T05:00:07;24.40;99.90
12602;DHT22;30282;16.436;99.370;2024-01-30T05:02:37;24.40;99.90
12602;DHT22;30282;16.436;99.370;2024-01-30T05:05:06;24.30;99.90
12602;DHT22;30282;16.436;99.370;2024-01-30T05:07:35;24.40;99.90
12602;DHT22;30282;16.436;99.370;2024-01-30T05:10:05;24.30;99.90
12602;DHT22;30282;16.436;99.370;2024-01-30T05:12:36;24.40;99.90
12602;DHT22;30282;16.436;99.370;2024-01-30T05:15:08;24.40;99.90
12602;DHT22;30282;16.436;99.370;2024-01-30T05:17:37;24.40;99.90
12602;DHT22;30282;16.436;99.370;2024-01-30T05:20:07;24.40;99.90
12602;DHT22;30282;16.436;99.370;2024-01-30T05:22:37;24.40;99.90
12602;DHT22;30282;16.436;99.370;2024-01-30T05:25:12;24.40;99.90
12602;DHT22;30282;16.436;99.370;2024-01-30T05:27:42;24.40;99.90
12602;DHT22;30282;16.436;99.370;2024-01-30T05:30:12;24.40;99.90
12602;DHT22;30282;16.436;99.370;2024-01-30T05:32:41;24.40;99.90
12602;DHT22;30282;16.436;99.370;2024-01-30T05:35:10;24.40;99.90
12602;DHT22;30282;16.436;99.370;2024-01-30T05:37:39;24.40;99.90
12602;DHT22;30282;16.436;99.370;2024-01-30T05:40:09;24.40;99.90
12602;DHT22;30282;16.436;99.370;2024-01-30T05:42:38;24.40;99.90
12602;DHT22;30282;16.436;99.370;2024-01-30T05:45:09;24.40;99.90
12602;DHT22;30282;16.436;99.370;2024-01-30T05:47:39;24.40;99.90
12602;DHT22;30282;16.436;99.370;2024-01-30T05:50:08;24.40;99.90
12602;DHT22;30282;16.436;99.370;2024-01-30T05:52:38;24.40;99.90
12602;DHT22;30282;16.436;99.370;2024-01-30T05:55:07;24.40;99.90
12602;DHT22;30282;16.436;99.370;2024-01-30T05:57:38;24.40;99.90
12602;DHT22;30282;16.436;99.370;2024-01-30T06:00:09;24.40;99.90
12602;DHT22;30282;16.436;99.370;2024-01-30T06:02:39;24.40;99.90
12602;DHT22;30282;16.436;99.370;2024-01-30T06:05:08;24.50;99.90
12602;DHT22;30282;16.436;99.370;2024-01-30T06:07:38;24.50;99.90
12602;DHT22;30282;16.436;99.370;2024-01-30T06:10:08;24.50;99.90
12602;DHT22;30282;16.436;99.370;2024-01-30T06:12:37;24.60;99.90
12602;DHT22;30282;16.436;99.370;2024-01-30T06:15:09;24.50;99.90
12602;DHT22;30282;16.436;99.370;2024-01-30T06:17:39;24.50;99.90
12602;DHT22;30282;16.436;99.370;2024-01-30T06:20:08;24.50;99.90
12602;DHT22;30282;16.436;99.370;2024-01-30T06:22:37;24.60;99.90
12602;DHT22;30282;16.436;99.370;2024-01-30T06:25:07;24.60;99.90
12602;DHT22;30282;16.436;99.370;2024-01-30T06:27:37;24.70;99.90
12602;DHT22;30282;16.436;99.370;2024-01-30T06:30:08;24.80;99.90
12602;DHT22;30282;16.436;99.370;2024-01-30T06:32:37;24.70;99.90
12602;DHT22;30282;16.436;99.370;2024-01-30T06:35:07;24.70;99.90
12602;DHT22;30282;16.436;99.370;2024-01-30T06:37:37;24.70;99.90
12602;DHT22;30282;16.436;99.370;2024-01-30T06:40:07;24.70;99.90
12602;DHT22;30282;16.436;99.370;2024-01-30T06:42:36;24.70;99.90
12602;DHT22;30282;16.436;99.370;2024-01-30T06:45:06;24.70;99.90
12602;DHT22;30282;16.436;99.370;2024-01-30T06:47:37;24.70;99.90
12602;DHT22;30282;16.436;99.370;2024-01-30T06:50:07;24.70;99.90
12602;DHT22;30282;16.436;99.370;2024-01-30T06:52:36;24.80;99.90
12602;DHT22;30282;16.436;99.370;2024-01-30T06:55:06;24.70;99.90
12602;DHT22;30282;16.436;99.370;2024-01-30T06:57:35;24.70;99.90
12602;DHT22;30282;16.436;99.370;2024-01-30T07:00:05;24.70;99.90
12602;DHT22;30282;16.436;99.370;2024-01-30T07:02:34;24.70;99.90
12602;DHT22;30282;16.436;99.370;2024-01-30T07:05:05;24.70;99.90
12602;DHT22;30282;16.436;99.370;2024-01-30T07:07:34;24.70;99.90
12602;DHT22;30282;16.436;99.370;2024-01-30T07:10:03;24.60;99.90
12602;DHT22;30282;16.436;99.370;2024-01-30T07:12:32;24.60;99.90
12602;DHT22;30282;16.436;99.370;2024-01-30T07:15:01;24.60;99.90
12602;DHT22;30282;16.436;99.370;2024-01-30T07:17:30;24.60;99.90
12602;DHT22;30282;16.436;99.370;2024-01-30T07:19:59;24.60;99.90
12602;DHT22;30282;16.436;99.370;2024-01-30T07:22:31;24.60;99.90
12602;DHT22;30282;16.436;99.370;2024-01-30T07:25:01;24.60;99.90
12602;DHT22;30282;16.436;99.370;2024-01-30T07:27:30;24.60;99.90
12602;DHT22;30282;16.436;99.370;2024-01-30T07:29:59;24.60;99.90
12602;DHT22;30282;16.436;99.370;2024-01-30T07:32:28;24.60;99.90
12602;DHT22;30282;16.436;99.370;2024-01-30T07:34:57;24.70;99.90
12602;DHT22;30282;16.436;99.370;2024-01-30T07:37:26;24.70;99.90
12602;DHT22;30282;16.436;99.370;2024-01-30T07:39:57;24.70;99.90
12602;DHT22;30282;16.436;99.370;2024-01-30T07:42:26;24.70;99.90
12602;DHT22;30282;16.436;99.370;2024-01-30T07:44:55;24.70;99.90
12602;DHT22;30282;16.436;99.370;2024-01-30T07:47:24;24.70;99.90
12602;DHT22;30282;16.436;99.370;2024-01-30T07:49:53;24.70;99.90
12602;DHT22;30282;16.436;99.370;2024-01-30T07:52:22;24.70;99.90
12602;DHT22;30282;16.436;99.370;2024-01-30T07:54:51;24.60;99.90
12602;DHT22;30282;16.436;99.370;2024-01-30T07:57:22;24.60;99.90
12602;DHT22;30282;16.436;99.370;2024-01-30T07:59:51;24.60;99.90
12602;DHT22;30282;16.436;99.370;2024-01-30T08:02:20;24.60;99.90
12602;DHT22;30282;16.436;99.370;2024-01-30T08:04:49;24.60;99.90
12602;DHT22;30282;16.436;99.370;2024-01-30T08:07:18;24.60;99.90
12602;DHT22;30282;16.436;99.370;2024-01-30T08:09:48;24.60;99.90
12602;DHT22;30282;16.436;99.370;2024-01-30T08:12:17;24.60;99.90
12602;DHT22;30282;16.436;99.370;2024-01-30T08:14:48;24.50;99.90
12602;DHT22;30282;16.436;99.370;2024-01-30T08:17:17;24.50;99.90
12602;DHT22;30282;16.436;99.370;2024-01-30T08:19:46;24.50;99.90
12602;DHT22;30282;16.436;99.370;2024-01-30T08:22:15;24.50;99.90
12602;DHT22;30282;16.436;99.370;2024-01-30T08:24:44;24.50;99.90
12602;DHT22;30282;16.436;99.370;2024-01-30T08:27:13;24.50;99.90
12602;DHT22;30282;16.436;99.370;2024-01-30T08:29:42;24.50;99.90
12602;DHT22;30282;16.436;99.370;2024-01-30T08:32:13;24.50;99.90
12602;DHT22;30282;16.436;99.370;2024-01-30T08:34:42;24.50;99.90
12602;DHT22;30282;16.436;99.370;2024-01-30T08:37:11;24.50;99.90
12602;DHT22;30282;16.436;99.370;2024-01-30T08:39:43;24.50;99.90
12602;DHT22;30282;16.436;99.370;2024-01-30T08:42:12;24.50;99.90
12602;DHT22;30282;16.436;99.370;2024-01-30T08:44:41;24.50;99.90
12602;DHT22;30282;16.436;99.370;2024-01-30T08:47:10;24.50;99.90
12602;DHT22;30282;16.436;99.370;2024-01-30T08:49:40;24.50;99.90
12602;DHT22;30282;16.436;99.370;2024-01-30T08:52:10;24.50;99.90
12602;DHT22;30282;16.436;99.370;2024-01-30T08:54:39;24.50;99.90
12602;DHT22;30282;16.436;99.370;2024-01-30T08:57:09;24.50;99.90
12602;DHT22;30282;16.436;99.370;2024-01-30T08:59:38;24.50;99.90
12602;DHT22;30282;16.436;99.370;2024-01-30T09:02:06;24.50;99.90
12602;DHT22;30282;16.436;99.370;2024-01-30T09:04:37;24.50;99.90
12602;DHT22;30282;16.436;99.370;2024-01-30T09:07:12;24.50;99.90
12602;DHT22;30282;16.436;99.370;2024-01-30T09:09:42;24.50;99.90
12602;DHT22;30282;16.436;99.370;2024-01-30T09:12:14;24.50;99.90
12602;DHT22;30282;16.436;99.370;2024-01-30T09:14:44;24.50;99.90
12602;DHT22;30282;16.436;99.370;2024-01-30T09:17:13;24.50;99.90
12602;DHT22;30282;16.436;99.370;2024-01-30T09:19:43;24.50;99.90
12602;DHT22;30282;16.436;99.370;2024-01-30T09:22:14;24.50;99.90
12602;DHT22;30282;16.436;99.370;2024-01-30T09:24:45;24.50;99.90
12602;DHT22;30282;16.436;99.370;2024-01-30T09:27:15;24.50;99.90
12602;DHT22;30282;16.436;99.370;2024-01-30T09:29:44;24.60;99.90
12602;DHT22;30282;16.436;99.370;2024-01-30T09:32:14;24.60;99.90
12602;DHT22;30282;16.436;99.370;2024-01-30T09:34:44;24.60;99.90
12602;DHT22;30282;16.436;99.370;2024-01-30T09:37:16;24.60;99.90
12602;DHT22;30282;16.436;99.370;2024-01-30T09:39:48;24.50;99.90
12602;DHT22;30282;16.436;99.370;2024-01-30T09:42:26;24.50;99.90
12602;DHT22;30282;16.436;99.370;2024-01-30T09:44:57;24.50;99.90
12602;DHT22;30282;16.436;99.370;2024-01-30T09:47:27;24.50;99.90
12602;DHT22;30282;16.436;99.370;2024-01-30T09:50:00;24.50;99.90
12602;DHT22;30282;16.436;99.370;2024-01-30T09:52:32;24.50;99.90
12602;DHT22;30282;16.436;99.370;2024-01-30T09:55:05;24.50;99.90
12602;DHT22;30282;16.436;99.370;2024-01-30T09:57:35;24.50;99.90
12602;DHT22;30282;16.436;99.370;2024-01-30T10:00:06;24.50;99.90
12602;DHT22;30282;16.436;99.370;2024-01-30T10:02:35;24.50;99.90
12602;DHT22;30282;16.436;99.370;2024-01-30T10:05:06;24.50;99.90
12602;DHT22;30282;16.436;99.370;2024-01-30T10:07:38;24.50;99.90
12602;DHT22;30282;16.436;99.370;2024-01-30T10:10:18;24.50;99.90
12602;DHT22;30282;16.436;99.370;2024-01-30T10:12:48;24.50;99.90
12602;DHT22;30282;16.436;99.370;2024-01-30T10:15:18;24.50;99.90
12602;DHT22;30282;16.436;99.370;2024-01-30T10:17:47;24.40;99.90
12602;DHT22;30282;16.436;99.370;2024-01-30T10:20:16;24.40;99.90
12602;DHT22;30282;16.436;99.370;2024-01-30T10:22:48;24.40;99.90
12602;DHT22;30282;16.436;99.370;2024-01-30T10:25:18;24.40;99.90
12602;DHT22;30282;16.436;99.370;2024-01-30T10:27:47;24.30;99.90
12602;DHT22;30282;16.436;99.370;2024-01-30T10:30:21;24.20;99.90
12602;DHT22;30282;16.436;99.370;2024-01-30T10:32:50;24.20;99.90
12602;DHT22;30282;16.436;99.370;2024-01-30T10:35:19;24.20;99.90
12602;DHT22;30282;16.436;99.370;2024-01-30T10:37:50;24.20;99.90
12602;DHT22;30282;16.436;99.370;2024-01-30T10:40:22;24.20;99.90
12602;DHT22;30282;16.436;99.370;2024-01-30T10:42:53;24.20;99.90
12602;DHT22;30282;16.436;99.370;2024-01-30T10:45:23;24.20;99.90
12602;DHT22;30282;16.436;99.370;2024-01-30T10:47:55;24.30;99.90
12602;DHT22;30282;16.436;99.370;2024-01-30T10:50:25;24.30;99.90
12602;DHT22;30282;16.436;99.370;2024-01-30T10:52:56;24.30;99.90
12602;DHT22;30282;16.436;99.370;2024-01-30T10:55:27;24.30;99.90
12602;DHT22;30282;16.436;99.370;2024-01-30T10:57:57;24.30;99.90
12602;DHT22;30282;16.436;99.370;2024-01-30T11:00:27;24.30;99.90
12602;DHT22;30282;16.436;99.370;2024-01-30T11:03:00;24.40;99.90
12602;DHT22;30282;16.436;99.370;2024-01-30T11:05:29;24.30;99.90
12602;DHT22;30282;16.436;99.370;2024-01-30T11:08:10;24.30;99.90
12602;DHT22;30282;16.436;99.370;2024-01-30T11:10:46;24.20;99.90
12602;DHT22;30282;16.436;99.370;2024-01-30T11:13:18;24.20;99.90
12602;DHT22;30282;16.436;99.370;2024-01-30T11:15:48;24.20;99.90
12602;DHT22;30282;16.436;99.370;2024-01-30T11:18:24;24.20;99.90
12602;DHT22;30282;16.436;99.370;2024-01-30T11:20:53;24.20;99.90
12602;DHT22;30282;16.436;99.370;2024-01-30T11:23:26;24.20;99.90
12602;DHT22;30282;16.436;99.370;2024-01-30T11:25:56;24.20;99.90
12602;DHT22;30282;16.436;99.370;2024-01-30T11:28:32;24.20;99.90
12602;DHT22;30282;16.436;99.370;2024-01-30T11:31:06;24.20;99.90
12602;DHT22;30282;16.436;99.370;2024-01-30T11:33:35;24.20;99.90
12602;DHT22;30282;16.436;99.370;2024-01-30T11:36:05;24.20;99.90
12602;DHT22;30282;16.436;99.370;2024-01-30T11:38:37;24.20;99.90
12602;DHT22;30282;16.436;99.370;2024-01-30T11:41:06;24.20;99.90
12602;DHT22;30282;16.436;99.370;2024-01-30T11:43:35;24.20;99.90
12602;DHT22;30282;16.436;99.370;2024-01-30T11:46:07;24.20;99.90
12602;DHT22;30282;16.436;99.370;2024-01-30T11:48:37;24.20;99.90
12602;DHT22;30282;16.436;99.370;2024-01-30T11:51:06;24.10;99.90
12602;DHT22;30282;16.436;99.370;2024-01-30T11:53:37;24.10;99.90
12602;DHT22;30282;16.436;99.370;2024-01-30T11:56:07;24.10;99.90
12602;DHT22;30282;16.436;99.370;2024-01-30T11:58:36;24.00;99.90
12602;DHT22;30282;16.436;99.370;2024-01-30T12:01:05;24.00;99.90
12602;DHT22;30282;16.436;99.370;2024-01-30T12:03:34;24.00;99.90
12602;DHT22;30282;16.436;99.370;2024-01-30T12:06:04;24.00;99.90
12602;DHT22;30282;16.436;99.370;2024-01-30T12:08:35;24.00;99.90
12602;DHT22;30282;16.436;99.370;2024-01-30T12:11:07;24.00;99.90
12602;DHT22;30282;16.436;99.370;2024-01-30T12:13:36;24.10;99.90
12602;DHT22;30282;16.436;99.370;2024-01-30T12:16:07;24.10;99.90
12602;DHT22;30282;16.436;99.370;2024-01-30T12:18:36;24.00;99.90
12602;DHT22;30282;16.436;99.370;2024-01-30T12:21:05;24.00;99.90
12602;DHT22;30282;16.436;99.370;2024-01-30T12:23:37;24.00;99.90
12602;DHT22;30282;16.436;99.370;2024-01-30T12:26:06;24.00;99.90
12602;DHT22;30282;16.436;99.370;2024-01-30T12:28:35;24.00;99.90
12602;DHT22;30282;16.436;99.370;2024-01-30T12:31:04;23.90;99.90
12602;DHT22;30282;16.436;99.370;2024-01-30T12:33:33;23.90;99.90
12602;DHT22;30282;16.436;99.370;2024-01-30T12:36:05;23.90;99.90
12602;DHT22;30282;16.436;99.370;2024-01-30T12:38:37;23.80;99.90
12602;DHT22;30282;16.436;99.370;2024-01-30T12:41:08;23.80;99.90
12602;DHT22;30282;16.436;99.370;2024-01-30T12:43:37;23.90;99.90
12602;DHT22;30282;16.436;99.370;2024-01-30T12:46:07;24.00;99.90
12602;DHT22;30282;16.436;99.370;2024-01-30T12:48:36;24.00;99.90
12602;DHT22;30282;16.436;99.370;2024-01-30T12:51:05;24.10;99.90
12602;DHT22;30282;16.436;99.370;2024-01-30T12:53:37;24.00;99.90
12602;DHT22;30282;16.436;99.370;2024-01-30T12:56:06;24.10;99.90
12602;DHT22;30282;16.436;99.370;2024-01-30T12:58:35;24.00;99.90
12602;DHT22;30282;16.436;99.370;2024-01-30T13:01:05;24.00;99.90
12602;DHT22;30282;16.436;99.370;2024-01-30T13:03:34;24.00;99.90
12602;DHT22;30282;16.436;99.370;2024-01-30T13:06:04;24.00;99.90
12602;DHT22;30282;16.436;99.370;2024-01-30T13:08:33;24.00;99.90
12602;DHT22;30282;16.436;99.370;2024-01-30T13:11:04;24.00;99.90
12602;DHT22;30282;16.436;99.370;2024-01-30T13:13:34;23.90;99.90
12602;DHT22;30282;16.436;99.370;2024-01-30T13:16:03;23.90;99.90
12602;DHT22;30282;16.436;99.370;2024-01-30T13:18:32;23.90;99.90
12602;DHT22;30282;16.436;99.370;2024-01-30T13:21:02;23.90;99.90
12602;DHT22;30282;16.436;99.370;2024-01-30T13:23:31;23.90;99.90
12602;DHT22;30282;16.436;99.370;2024-01-30T13:26:02;23.90;99.90
12602;DHT22;30282;16.436;99.370;2024-01-30T13:28:32;23.90;99.90
12602;DHT22;30282;16.436;99.370;2024-01-30T13:31:01;23.90;99.90
12602;DHT22;30282;16.436;99.370;2024-01-30T13:33:30;23.90;99.90
12602;DHT22;30282;16.436;99.370;2024-01-30T13:35:59;23.80;99.90
12602;DHT22;30282;16.436;99.370;2024-01-30T13:38:28;23.80;99.90
12602;DHT22;30282;16.436;99.370;2024-01-30T13:40:57;23.80;99.90
12602;DHT22;30282;16.436;99.370;2024-01-30T13:43:28;23.80;99.90
12602;DHT22;30282;16.436;99.370;2024-01-30T13:45:58;23.80;99.90
12602;DHT22;30282;16.436;99.370;2024-01-30T13:48:27;23.80;99.90
12602;DHT22;30282;16.436;99.370;2024-01-30T13:50:56;23.80;99.90
12602;DHT22;30282;16.436;99.370;2024-01-30T13:53:25;23.80;99.90
12602;DHT22;30282;16.436;99.370;2024-01-30T13:55:55;23.90;99.90
12602;DHT22;30282;16.436;99.370;2024-01-30T13:58:24;23.90;99.90
12602;DHT22;30282;16.436;99.370;2024-01-30T14:01:00;23.90;99.90
12602;DHT22;30282;16.436;99.370;2024-01-30T14:03:31;23.90;99.90
12602;DHT22;30282;16.436;99.370;2024-01-30T14:06:01;23.90;99.90
12602;DHT22;30282;16.436;99.370;2024-01-30T14:08:30;23.80;99.90
12602;DHT22;30282;16.436;99.370;2024-01-30T14:10:59;23.80;99.90
12602;DHT22;30282;16.436;99.370;2024-01-30T14:13:28;23.80;99.90
12602;DHT22;30282;16.436;99.370;2024-01-30T14:15:59;23.80;99.90
12602;DHT22;30282;16.436;99.370;2024-01-30T14:18:29;23.80;99.90
12602;DHT22;30282;16.436;99.370;2024-01-30T14:20:59;23.80;99.90
12602;DHT22;30282;16.436;99.370;2024-01-30T14:23:29;23.70;99.90
12602;DHT22;30282;16.436;99.370;2024-01-30T14:25:58;23.70;99.90
12602;DHT22;30282;16.436;99.370;2024-01-30T14:28:28;23.60;99.90
12602;DHT22;30282;16.436;99.370;2024-01-30T14:30:59;23.60;99.90
12602;DHT22;30282;16.436;99.370;2024-01-30T14:33:28;23.60;99.90
12602;DHT22;30282;16.436;99.370;2024-01-30T14:35:57;23.60;99.90
12602;DHT22;30282;16.436;99.370;2024-01-30T14:38:26;23.60;99.90
12602;DHT22;30282;16.436;99.370;2024-01-30T14:40:55;23.60;99.90
12602;DHT22;30282;16.436;99.370;2024-01-30T14:43:24;23.60;99.90
12602;DHT22;30282;16.436;99.370;2024-01-30T14:45:53;23.60;99.90
12602;DHT22;30282;16.436;99.370;2024-01-30T14:48:25;23.60;99.90
12602;DHT22;30282;16.436;99.370;2024-01-30T14:50:55;23.60;99.90
12602;DHT22;30282;16.436;99.370;2024-01-30T14:53:24;23.60;99.90
12602;DHT22;30282;16.436;99.370;2024-01-30T14:55:54;23.60;99.90
12602;DHT22;30282;16.436;99.370;2024-01-30T14:58:23;23.60;99.90
12602;DHT22;30282;16.436;99.370;2024-01-30T15:00:52;23.50;99.90
12602;DHT22;30282;16.436;99.370;2024-01-30T15:03:21;23.50;99.90
12602;DHT22;30282;16.436;99.370;2024-01-30T15:05:52;23.50;99.90
12602;DHT22;30282;16.436;99.370;2024-01-30T15:08:22;23.50;99.90
12602;DHT22;30282;16.436;99.370;2024-01-30T15:10:51;23.50;99.90
12602;DHT22;30282;16.436;99.370;2024-01-30T15:13:20;23.40;99.90
12602;DHT22;30282;16.436;99.370;2024-01-30T15:15:50;23.40;99.90
12602;DHT22;30282;16.436;99.370;2024-01-30T15:18:20;23.40;99.90
12602;DHT22;30282;16.436;99.370;2024-01-30T15:20:52;23.40;99.90
12602;DHT22;30282;16.436;99.370;2024-01-30T15:23:21;23.40;99.90
12602;DHT22;30282;16.436;99.370;2024-01-30T15:25:51;23.40;99.90
12602;DHT22;30282;16.436;99.370;2024-01-30T15:28:22;23.30;99.90
12602;DHT22;30282;16.436;99.370;2024-01-30T15:30:52;23.30;99.90